createdAt,value
2022-10-25T00:06:14.130Z,17.34
2022-10-25T00:12:59.712Z,17.26
2022-10-25T00:19:45.126Z,17.04
2022-10-25T00:26:33.088Z,17.35
2022-10-25T00:33:18.939Z,17.34
2022-10-25T00:40:04.315Z,17.26
2022-10-25T00:46:53.870Z,17.21
2022-10-25T00:53:41.189Z,17.13
2022-10-25T01:00:26.659Z,17.23
2022-10-25T01:07:14.814Z,17.15
2022-10-25T02:25:20.359Z,16.95
2022-10-25T02:32:07.074Z,16.91
2022-10-25T02:38:53.535Z,17.05
2022-10-25T03:06:23.892Z,17.08
2022-10-25T03:13:09.280Z,17.09
2022-10-25T03:19:54.657Z,17.20
2022-10-25T03:26:42.634Z,17.37
2022-10-25T03:33:28.893Z,17.28
2022-10-25T03:40:15.489Z,17.29
2022-10-25T03:47:03.199Z,17.37
2022-10-25T03:53:48.567Z,17.13
2022-10-25T04:00:34.381Z,17.08
2022-10-25T04:07:22.730Z,17.03
2022-10-25T04:14:08.549Z,17.00
2022-10-25T04:20:53.895Z,17.01
2022-10-25T04:27:41.874Z,16.82
2022-10-25T04:34:27.206Z,16.93
2022-10-25T04:41:13.420Z,16.98
2022-10-25T04:48:02.022Z,17.02
2022-10-25T04:54:47.366Z,16.96
2022-10-25T05:01:32.858Z,16.99
2022-10-25T05:08:20.895Z,17.08
2022-10-25T05:15:06.675Z,17.11
2022-10-25T05:21:52.050Z,17.24
2022-10-25T05:28:42.088Z,17.17
2022-10-25T05:35:27.804Z,17.26
2022-10-25T05:42:13.233Z,17.07
2022-10-25T05:49:03.077Z,17.02
2022-10-25T05:55:48.452Z,16.56
2022-10-25T06:02:35.449Z,16.86
2022-10-25T06:09:23.584Z,16.73
2022-10-25T06:16:11.271Z,16.77
2022-10-25T06:22:56.638Z,16.74
2022-10-25T06:29:44.654Z,16.70
2022-10-25T06:36:31.194Z,16.64
2022-10-25T06:43:16.423Z,16.79
2022-10-25T06:57:12.235Z,16.69
2022-10-25T07:03:59.575Z,16.83
2022-10-25T07:10:47.529Z,16.99
2022-10-25T07:17:32.863Z,17.04
2022-10-25T07:24:18.306Z,17.15
2022-10-25T07:31:06.245Z,17.14
2022-10-25T07:37:51.589Z,17.21
2022-10-25T07:44:37.037Z,17.31
2022-10-25T07:51:25.265Z,16.77
2022-10-25T07:58:14.238Z,17.46
2022-10-25T08:04:59.620Z,17.61
2022-10-25T08:11:47.584Z,17.68
2022-10-25T08:18:33.298Z,17.80
2022-10-25T08:25:20.675Z,17.90
2022-10-25T08:32:10.564Z,18.07
2022-10-25T08:38:55.923Z,18.24
2022-10-25T08:45:50.144Z,18.37
2022-10-25T08:52:44.816Z,18.41
2022-10-25T08:59:35.091Z,18.43
2022-10-25T09:06:33.425Z,18.48
2022-10-25T09:20:51.416Z,18.56
2022-10-25T09:27:40.778Z,18.70
2022-10-25T09:34:34.233Z,18.86
2022-10-25T09:41:26.097Z,19.04
2022-10-25T09:48:20.541Z,19.01
2022-10-25T09:55:34.781Z,19.03
2022-10-25T10:02:27.122Z,19.13
2022-10-25T10:09:17.565Z,19.13
2022-10-25T10:16:14.069Z,19.20
2022-10-25T10:23:02.712Z,19.33
2022-10-25T10:29:59.869Z,19.34
2022-10-25T10:36:50.126Z,19.41
2022-10-25T10:43:36.867Z,19.56
2022-10-25T10:50:30.402Z,19.79
2022-10-25T10:57:32.853Z,19.80
2022-10-25T11:04:18.220Z,19.91
2022-10-25T11:11:19.629Z,19.93
2022-10-25T11:18:09.901Z,19.56
2022-10-25T11:25:17.675Z,20.14
2022-10-25T11:32:25.202Z,20.16
2022-10-25T11:39:30.214Z,20.08
2022-10-25T11:46:26.898Z,19.95
2022-10-25T11:53:44.618Z,20.14
2022-10-25T12:00:45.760Z,19.94
2022-10-25T12:07:39.629Z,20.26
2022-10-25T12:14:33.250Z,20.23
2022-10-25T12:21:27.885Z,20.31
2022-10-25T12:28:24.811Z,20.41
2022-10-25T12:35:23.595Z,20.63
2022-10-25T12:42:19.138Z,20.71
2022-10-25T12:49:27.829Z,20.66
2022-10-25T12:56:31.546Z,20.91
2022-10-25T13:04:13.737Z,21.23
2022-10-25T13:11:04.451Z,21.24
2022-10-25T13:18:06.181Z,21.70
2022-10-25T13:24:54.169Z,21.84
2022-10-25T13:31:51.691Z,22.01
2022-10-25T13:38:40.215Z,22.06
2022-10-25T13:45:37.674Z,21.48
2022-10-25T13:52:28.809Z,21.96
2022-10-25T13:59:53.689Z,21.98
2022-10-25T14:06:43.803Z,22.03
2022-10-25T14:13:39.245Z,21.40
2022-10-25T14:20:31.377Z,22.24
2022-10-25T14:27:37.553Z,22.42
2022-10-25T14:34:25.701Z,22.63
2022-10-25T14:41:15.980Z,22.73
2022-10-25T14:48:12.578Z,22.59
2022-10-25T14:55:03.168Z,22.64
2022-10-25T15:01:56.973Z,22.34
2022-10-25T15:08:51.639Z,22.72
2022-10-25T15:15:44.687Z,22.63
2022-10-25T15:22:34.302Z,22.45
2022-10-25T15:36:54.281Z,22.70
2022-10-25T15:43:39.635Z,22.76
2022-10-25T15:50:28.615Z,22.83
2022-10-25T15:57:14.167Z,22.94
2022-10-25T16:03:59.550Z,22.94
2022-10-25T16:10:47.805Z,22.88
2022-10-25T16:17:33.265Z,22.83
2022-10-25T16:24:19.667Z,22.89
2022-10-25T16:31:07.894Z,22.82
2022-10-25T16:37:53.642Z,22.71
2022-10-25T16:44:39.098Z,22.68
2022-10-25T16:51:28.824Z,22.60
2022-10-25T16:58:14.386Z,22.65
2022-10-25T17:04:59.927Z,22.88
2022-10-25T17:11:48.593Z,22.97
2022-10-25T17:18:35.836Z,22.91
2022-10-25T17:25:21.334Z,22.62
2022-10-25T17:32:09.797Z,22.43
2022-10-25T17:38:55.462Z,22.23
2022-10-25T17:45:40.855Z,22.06
2022-10-25T17:52:28.817Z,21.84
2022-10-25T17:59:14.389Z,21.68
2022-10-25T18:06:03.764Z,21.41
2022-10-25T18:12:51.953Z,21.25
2022-10-25T18:19:37.434Z,21.25
2022-10-25T18:26:22.906Z,20.66
2022-10-25T18:33:14.660Z,21.00
2022-10-25T18:40:00.147Z,20.89
2022-10-25T18:46:50.716Z,20.80
2022-10-25T18:53:39.584Z,20.74
2022-10-25T19:00:27.684Z,20.68
2022-10-25T19:07:13.037Z,20.64
2022-10-25T19:14:02.199Z,20.62
2022-10-25T19:20:47.760Z,20.54
2022-10-25T19:27:33.154Z,20.53
2022-10-25T19:34:21.505Z,20.49
2022-10-25T19:41:09.172Z,20.33
2022-10-25T19:47:56.939Z,20.39
2022-10-25T19:54:46.402Z,20.32
2022-10-25T20:01:32.249Z,20.30
2022-10-25T20:08:17.706Z,20.35
2022-10-25T20:15:05.760Z,20.30
2022-10-25T20:21:51.201Z,20.18
2022-10-25T20:28:36.573Z,20.22
2022-10-25T20:35:26.947Z,20.17
2022-10-25T20:42:12.521Z,20.20
2022-10-25T20:48:59.434Z,20.12
2022-10-25T20:55:48.475Z,20.06
2022-10-25T21:02:33.933Z,20.03
2022-10-25T21:09:19.490Z,20.09
2022-10-25T21:16:12.826Z,19.84
2022-10-25T21:22:59.255Z,19.96
2022-10-25T21:29:44.657Z,19.98
2022-10-25T21:36:32.641Z,20.11
2022-10-25T21:43:18.026Z,20.09
2022-10-25T21:50:03.395Z,20.11
2022-10-25T21:56:52.683Z,19.95
2022-10-25T22:03:38.145Z,20.10
2022-10-25T22:10:23.606Z,20.01
2022-10-25T22:17:11.620Z,19.99
2022-10-25T22:23:56.995Z,19.89
2022-10-25T22:30:42.307Z,19.75
2022-10-25T22:37:30.267Z,19.68
2022-10-25T22:44:15.801Z,19.70
2022-10-25T22:51:02.155Z,19.64
2022-10-25T22:57:50.300Z,19.64
2022-10-25T23:04:35.945Z,19.57
2022-10-25T23:11:23.378Z,19.58
2022-10-25T23:18:11.325Z,19.63
2022-10-25T23:24:56.830Z,19.66
2022-10-25T23:31:42.532Z,19.63
2022-10-25T23:38:30.479Z,19.72
2022-10-25T23:45:15.999Z,19.69
2022-10-25T23:52:01.568Z,19.83
2022-10-25T23:58:53.384Z,19.77
